sensor_id;sensor_type;location;lat;lon;timestamp;P1;durP1;ratioP1;P2;durP2;ratioP2
34136;SDS011;20414;50.860;4.382;2022-09-09T00:00:53;0.52;;;0.30;;
34136;SDS011;20414;50.860;4.382;2022-09-09T00:03:43;0.25;;;0.20;;
34136;SDS011;20414;50.860;4.382;2022-09-09T00:06:24;0.13;;;0.10;;
34136;SDS011;20414;50.860;4.382;2022-09-09T00:11:43;0.32;;;0.25;;
34136;SDS011;20414;50.860;4.382;2022-09-09T00:14:15;0.30;;;0.17;;
34136;SDS011;20414;50.860;4.382;2022-09-09T00:17:03;0.93;;;0.40;;
34136;SDS011;20414;50.860;4.382;2022-09-09T00:19:42;0.30;;;0.20;;
34136;SDS011;20414;50.860;4.382;2022-09-09T00:22:16;0.30;;;0.20;;
34136;SDS011;20414;50.860;4.382;2022-09-09T00:24:46;0.40;;;0.27;;
34136;SDS011;20414;50.860;4.382;2022-09-09T00:27:19;0.20;;;0.10;;
34136;SDS011;20414;50.860;4.382;2022-09-09T00:29:51;0.40;;;0.25;;
34136;SDS011;20414;50.860;4.382;2022-09-09T00:32:24;0.32;;;0.20;;
34136;SDS011;20414;50.860;4.382;2022-09-09T00:34:55;0.60;;;0.20;;
34136;SDS011;20414;50.860;4.382;2022-09-09T00:37:25;0.55;;;0.30;;
34136;SDS011;20414;50.860;4.382;2022-09-09T00:39:51;0.30;;;0.20;;
34136;SDS011;20414;50.860;4.382;2022-09-09T00:42:25;0.20;;;0.20;;
34136;SDS011;20414;50.860;4.382;2022-09-09T00:48:02;0.28;;;0.20;;
34136;SDS011;20414;50.860;4.382;2022-09-09T00:56:13;0.13;;;0.10;;
34136;SDS011;20414;50.860;4.382;2022-09-09T01:01:30;0.85;;;0.30;;
34136;SDS011;20414;50.860;4.382;2022-09-09T01:03:56;0.17;;;0.10;;
34136;SDS011;20414;50.860;4.382;2022-09-09T01:06:32;0.13;;;0.13;;
34136;SDS011;20414;50.860;4.382;2022-09-09T01:10:03;0.65;;;0.32;;
34136;SDS011;20414;50.860;4.382;2022-09-09T01:12:09;0.13;;;0.10;;
34136;SDS011;20414;50.860;4.382;2022-09-09T01:14:48;0.15;;;0.10;;
34136;SDS011;20414;50.860;4.382;2022-09-09T01:26:34;0.57;;;0.20;;
34136;SDS011;20414;50.860;4.382;2022-09-09T01:28:27;0.30;;;0.20;;
34136;SDS011;20414;50.860;4.382;2022-09-09T01:30:56;0.20;;;0.10;;
34136;SDS011;20414;50.860;4.382;2022-09-09T01:33:22;0.88;;;0.17;;
34136;SDS011;20414;50.860;4.382;2022-09-09T01:35:59;0.10;;;0.10;;
34136;SDS011;20414;50.860;4.382;2022-09-09T01:38:30;0.32;;;0.10;;
34136;SDS011;20414;50.860;4.382;2022-09-09T01:40:57;0.32;;;0.20;;
34136;SDS011;20414;50.860;4.382;2022-09-09T01:43:23;0.32;;;0.20;;
34136;SDS011;20414;50.860;4.382;2022-09-09T01:45:51;1.55;;;0.20;;
34136;SDS011;20414;50.860;4.382;2022-09-09T01:48:21;0.45;;;0.20;;
34136;SDS011;20414;50.860;4.382;2022-09-09T01:50:48;0.30;;;0.20;;
34136;SDS011;20414;50.860;4.382;2022-09-09T01:53:14;0.30;;;0.10;;
34136;SDS011;20414;50.860;4.382;2022-09-09T01:55:42;0.13;;;0.13;;
34136;SDS011;20414;50.860;4.382;2022-09-09T02:04:24;0.50;;;0.20;;
34136;SDS011;20414;50.860;4.382;2022-09-09T02:07:02;0.45;;;0.10;;
34136;SDS011;20414;50.860;4.382;2022-09-09T02:09:46;0.10;;;0.10;;
34136;SDS011;20414;50.860;4.382;2022-09-09T02:12:23;0.20;;;0.10;;
34136;SDS011;20414;50.860;4.382;2022-09-09T02:14:54;0.10;;;0.10;;
34136;SDS011;20414;50.860;4.382;2022-09-09T02:17:28;0.20;;;0.20;;
34136;SDS011;20414;50.860;4.382;2022-09-09T02:20:01;0.25;;;0.20;;
34136;SDS011;20414;50.860;4.382;2022-09-09T02:22:33;0.10;;;0.10;;
34136;SDS011;20414;50.860;4.382;2022-09-09T02:25:01;0.28;;;0.20;;
34136;SDS011;20414;50.860;4.382;2022-09-09T02:27:28;0.30;;;0.10;;
34136;SDS011;20414;50.860;4.382;2022-09-09T02:29:54;0.95;;;0.20;;
34136;SDS011;20414;50.860;4.382;2022-09-09T02:32:25;0.25;;;0.22;;
34136;SDS011;20414;50.860;4.382;2022-09-09T02:35:00;0.60;;;0.20;;
34136;SDS011;20414;50.860;4.382;2022-09-09T02:37:32;0.30;;;0.20;;
34136;SDS011;20414;50.860;4.382;2022-09-09T02:40:04;0.22;;;0.13;;
34136;SDS011;20414;50.860;4.382;2022-09-09T02:42:31;0.08;;;0.05;;
34136;SDS011;20414;50.860;4.382;2022-09-09T02:44:57;0.32;;;0.10;;
34136;SDS011;20414;50.860;4.382;2022-09-09T02:47:37;0.25;;;0.20;;
34136;SDS011;20414;50.860;4.382;2022-09-09T02:56:18;0.38;;;0.20;;
34136;SDS011;20414;50.860;4.382;2022-09-09T02:58:46;0.30;;;0.20;;
34136;SDS011;20414;50.860;4.382;2022-09-09T03:01:13;0.30;;;0.10;;
34136;SDS011;20414;50.860;4.382;2022-09-09T03:03:39;0.32;;;0.20;;
34136;SDS011;20414;50.860;4.382;2022-09-09T03:06:06;0.47;;;0.20;;
34136;SDS011;20414;50.860;4.382;2022-09-09T03:08:32;0.30;;;0.10;;
34136;SDS011;20414;50.860;4.382;2022-09-09T03:10:58;0.20;;;0.20;;
34136;SDS011;20414;50.860;4.382;2022-09-09T03:13:26;0.32;;;0.15;;
34136;SDS011;20414;50.860;4.382;2022-09-09T03:15:52;0.20;;;0.10;;
34136;SDS011;20414;50.860;4.382;2022-09-09T03:18:17;0.20;;;0.10;;
34136;SDS011;20414;50.860;4.382;2022-09-09T03:20:43;0.15;;;0.10;;
34136;SDS011;20414;50.860;4.382;2022-09-09T03:23:11;0.52;;;0.20;;
34136;SDS011;20414;50.860;4.382;2022-09-09T03:25:38;0.35;;;0.20;;
34136;SDS011;20414;50.860;4.382;2022-09-09T03:28:04;0.20;;;0.20;;
34136;SDS011;20414;50.860;4.382;2022-09-09T03:30:30;0.10;;;0.10;;
34136;SDS011;20414;50.860;4.382;2022-09-09T03:32:56;0.30;;;0.22;;
34136;SDS011;20414;50.860;4.382;2022-09-09T03:35:22;0.20;;;0.20;;
34136;SDS011;20414;50.860;4.382;2022-09-09T03:37:48;0.25;;;0.10;;
34136;SDS011;20414;50.860;4.382;2022-09-09T03:40:14;0.35;;;0.17;;
34136;SDS011;20414;50.860;4.382;2022-09-09T03:42:39;0.65;;;0.10;;
34136;SDS011;20414;50.860;4.382;2022-09-09T03:45:06;0.30;;;0.20;;
34136;SDS011;20414;50.860;4.382;2022-09-09T03:47:34;0.43;;;0.10;;
34136;SDS011;20414;50.860;4.382;2022-09-09T03:49:59;0.40;;;0.30;;
34136;SDS011;20414;50.860;4.382;2022-09-09T03:52:25;0.22;;;0.20;;
34136;SDS011;20414;50.860;4.382;2022-09-09T03:54:51;0.40;;;0.13;;
34136;SDS011;20414;50.860;4.382;2022-09-09T03:57:18;0.25;;;0.20;;
34136;SDS011;20414;50.860;4.382;2022-09-09T03:59:43;0.60;;;0.20;;
34136;SDS011;20414;50.860;4.382;2022-09-09T04:02:09;0.43;;;0.20;;
34136;SDS011;20414;50.860;4.382;2022-09-09T04:04:35;0.20;;;0.20;;
34136;SDS011;20414;50.860;4.382;2022-09-09T04:07:01;0.20;;;0.10;;
34136;SDS011;20414;50.860;4.382;2022-09-09T04:09:26;0.95;;;0.20;;
34136;SDS011;20414;50.860;4.382;2022-09-09T04:11:52;0.20;;;0.10;;
34136;SDS011;20414;50.860;4.382;2022-09-09T04:14:19;0.57;;;0.20;;
34136;SDS011;20414;50.860;4.382;2022-09-09T04:16:44;0.30;;;0.10;;
34136;SDS011;20414;50.860;4.382;2022-09-09T04:19:11;0.50;;;0.22;;
34136;SDS011;20414;50.860;4.382;2022-09-09T04:21:38;0.45;;;0.10;;
34136;SDS011;20414;50.860;4.382;2022-09-09T04:24:05;0.25;;;0.10;;
34136;SDS011;20414;50.860;4.382;2022-09-09T04:26:34;0.52;;;0.20;;
34136;SDS011;20414;50.860;4.382;2022-09-09T04:29:04;0.47;;;0.20;;
34136;SDS011;20414;50.860;4.382;2022-09-09T04:31:31;0.20;;;0.10;;
34136;SDS011;20414;50.860;4.382;2022-09-09T04:33:57;0.73;;;0.20;;
34136;SDS011;20414;50.860;4.382;2022-09-09T04:36:22;1.15;;;0.13;;
34136;SDS011;20414;50.860;4.382;2022-09-09T04:38:48;1.85;;;0.20;;
34136;SDS011;20414;50.860;4.382;2022-09-09T04:41:14;0.68;;;0.28;;
34136;SDS011;20414;50.860;4.382;2022-09-09T04:43:41;0.40;;;0.20;;
34136;SDS011;20414;50.860;4.382;2022-09-09T04:46:07;0.30;;;0.15;;
34136;SDS011;20414;50.860;4.382;2022-09-09T04:48:34;0.20;;;0.10;;
34136;SDS011;20414;50.860;4.382;2022-09-09T04:51:03;0.43;;;0.20;;
34136;SDS011;20414;50.860;4.382;2022-09-09T04:53:30;0.60;;;0.20;;
34136;SDS011;20414;50.860;4.382;2022-09-09T04:56:06;0.30;;;0.10;;
34136;SDS011;20414;50.860;4.382;2022-09-09T04:58:32;0.82;;;0.20;;
34136;SDS011;20414;50.860;4.382;2022-09-09T05:01:08;0.63;;;0.20;;
34136;SDS011;20414;50.860;4.382;2022-09-09T05:03:36;0.35;;;0.20;;
34136;SDS011;20414;50.860;4.382;2022-09-09T05:06:06;0.52;;;0.20;;
34136;SDS011;20414;50.860;4.382;2022-09-09T05:08:34;1.20;;;0.30;;
34136;SDS011;20414;50.860;4.382;2022-09-09T05:13:37;0.63;;;0.20;;
34136;SDS011;20414;50.860;4.382;2022-09-09T05:16:03;0.60;;;0.20;;
34136;SDS011;20414;50.860;4.382;2022-09-09T05:18:29;0.73;;;0.20;;
34136;SDS011;20414;50.860;4.382;2022-09-09T05:20:58;0.75;;;0.30;;
34136;SDS011;20414;50.860;4.382;2022-09-09T05:23:25;0.28;;;0.20;;
34136;SDS011;20414;50.860;4.382;2022-09-09T05:25:57;0.40;;;0.30;;
34136;SDS011;20414;50.860;4.382;2022-09-09T05:28:24;1.05;;;0.30;;
34136;SDS011;20414;50.860;4.382;2022-09-09T05:30:57;0.50;;;0.20;;
34136;SDS011;20414;50.860;4.382;2022-09-09T05:33:34;0.60;;;0.20;;
34136;SDS011;20414;50.860;4.382;2022-09-09T05:36:04;0.60;;;0.20;;
34136;SDS011;20414;50.860;4.382;2022-09-09T05:38:51;1.85;;;0.30;;
34136;SDS011;20414;50.860;4.382;2022-09-09T05:41:18;0.35;;;0.20;;
34136;SDS011;20414;50.860;4.382;2022-09-09T05:43:45;2.55;;;0.30;;
34136;SDS011;20414;50.860;4.382;2022-09-09T05:46:22;1.20;;;0.40;;
34136;SDS011;20414;50.860;4.382;2022-09-09T05:48:50;0.47;;;0.30;;
34136;SDS011;20414;50.860;4.382;2022-09-09T05:51:17;0.57;;;0.22;;
34136;SDS011;20414;50.860;4.382;2022-09-09T05:53:46;0.57;;;0.30;;
34136;SDS011;20414;50.860;4.382;2022-09-09T05:56:16;0.47;;;0.20;;
34136;SDS011;20414;50.860;4.382;2022-09-09T05:58:43;1.35;;;0.40;;
34136;SDS011;20414;50.860;4.382;2022-09-09T06:01:13;1.02;;;0.30;;
34136;SDS011;20414;50.860;4.382;2022-09-09T06:03:41;1.80;;;0.53;;
34136;SDS011;20414;50.860;4.382;2022-09-09T06:06:09;1.13;;;0.40;;
34136;SDS011;20414;50.860;4.382;2022-09-09T06:08:43;0.55;;;0.22;;
34136;SDS011;20414;50.860;4.382;2022-09-09T06:11:11;0.47;;;0.22;;
34136;SDS011;20414;50.860;4.382;2022-09-09T06:14:03;0.98;;;0.30;;
34136;SDS011;20414;50.860;4.382;2022-09-09T06:16:30;0.82;;;0.22;;
34136;SDS011;20414;50.860;4.382;2022-09-09T06:19:00;0.20;;;0.20;;
34136;SDS011;20414;50.860;4.382;2022-09-09T06:21:28;0.55;;;0.40;;
34136;SDS011;20414;50.860;4.382;2022-09-09T06:23:55;0.70;;;0.30;;
34136;SDS011;20414;50.860;4.382;2022-09-09T06:26:28;0.65;;;0.30;;
34136;SDS011;20414;50.860;4.382;2022-09-09T06:28:56;0.55;;;0.20;;
34136;SDS011;20414;50.860;4.382;2022-09-09T06:31:23;1.73;;;0.30;;
34136;SDS011;20414;50.860;4.382;2022-09-09T06:33:52;0.57;;;0.20;;
34136;SDS011;20414;50.860;4.382;2022-09-09T06:36:21;1.52;;;0.30;;
34136;SDS011;20414;50.860;4.382;2022-09-09T06:38:50;0.30;;;0.20;;
34136;SDS011;20414;50.860;4.382;2022-09-09T06:41:17;0.82;;;0.40;;
34136;SDS011;20414;50.860;4.382;2022-09-09T06:43:50;0.80;;;0.30;;
34136;SDS011;20414;50.860;4.382;2022-09-09T06:46:20;0.70;;;0.30;;
34136;SDS011;20414;50.860;4.382;2022-09-09T06:48:53;0.63;;;0.38;;
34136;SDS011;20414;50.860;4.382;2022-09-09T06:51:21;1.13;;;0.22;;
34136;SDS011;20414;50.860;4.382;2022-09-09T06:53:52;1.02;;;0.50;;
34136;SDS011;20414;50.860;4.382;2022-09-09T06:56:20;0.70;;;0.40;;
34136;SDS011;20414;50.860;4.382;2022-09-09T06:58:56;2.72;;;0.35;;
34136;SDS011;20414;50.860;4.382;2022-09-09T07:01:28;1.33;;;0.30;;
34136;SDS011;20414;50.860;4.382;2022-09-09T07:03:56;0.57;;;0.20;;
34136;SDS011;20414;50.860;4.382;2022-09-09T07:06:24;1.27;;;0.40;;
34136;SDS011;20414;50.860;4.382;2022-09-09T07:08:51;1.08;;;0.45;;
34136;SDS011;20414;50.860;4.382;2022-09-09T07:11:18;2.13;;;0.32;;
34136;SDS011;20414;50.860;4.382;2022-09-09T07:13:45;0.65;;;0.40;;
34136;SDS011;20414;50.860;4.382;2022-09-09T07:16:12;2.80;;;0.35;;
34136;SDS011;20414;50.860;4.382;2022-09-09T07:18:40;1.00;;;0.30;;
34136;SDS011;20414;50.860;4.382;2022-09-09T07:21:06;0.80;;;0.30;;
34136;SDS011;20414;50.860;4.382;2022-09-09T07:23:33;1.33;;;0.40;;
34136;SDS011;20414;50.860;4.382;2022-09-09T07:26:01;1.42;;;0.47;;
34136;SDS011;20414;50.860;4.382;2022-09-09T07:28:27;1.20;;;0.40;;
34136;SDS011;20414;50.860;4.382;2022-09-09T07:33:26;1.83;;;0.57;;
34136;SDS011;20414;50.860;4.382;2022-09-09T07:35:52;1.70;;;0.40;;
34136;SDS011;20414;50.860;4.382;2022-09-09T07:38:19;0.47;;;0.30;;
34136;SDS011;20414;50.860;4.382;2022-09-09T07:40:45;1.25;;;0.40;;
34136;SDS011;20414;50.860;4.382;2022-09-09T07:43:11;0.98;;;0.40;;
34136;SDS011;20414;50.860;4.382;2022-09-09T07:45:37;0.98;;;0.40;;
34136;SDS011;20414;50.860;4.382;2022-09-09T07:48:03;0.93;;;0.40;;
34136;SDS011;20414;50.860;4.382;2022-09-09T07:50:29;1.15;;;0.40;;
34136;SDS011;20414;50.860;4.382;2022-09-09T07:52:55;1.67;;;0.38;;
34136;SDS011;20414;50.860;4.382;2022-09-09T07:55:21;1.02;;;0.60;;
34136;SDS011;20414;50.860;4.382;2022-09-09T07:57:50;0.50;;;0.30;;
34136;SDS011;20414;50.860;4.382;2022-09-09T08:00:16;1.13;;;0.50;;
34136;SDS011;20414;50.860;4.382;2022-09-09T08:02:43;0.90;;;0.40;;
34136;SDS011;20414;50.860;4.382;2022-09-09T08:05:09;0.82;;;0.30;;
34136;SDS011;20414;50.860;4.382;2022-09-09T08:07:35;0.52;;;0.20;;
34136;SDS011;20414;50.860;4.382;2022-09-09T08:10:01;0.93;;;0.30;;
34136;SDS011;20414;50.860;4.382;2022-09-09T08:12:28;1.02;;;0.40;;
34136;SDS011;20414;50.860;4.382;2022-09-09T08:14:54;1.45;;;0.35;;
34136;SDS011;20414;50.860;4.382;2022-09-09T08:17:19;1.52;;;0.73;;
34136;SDS011;20414;50.860;4.382;2022-09-09T08:19:45;1.38;;;0.43;;
34136;SDS011;20414;50.860;4.382;2022-09-09T08:22:11;1.48;;;0.40;;
34136;SDS011;20414;50.860;4.382;2022-09-09T08:24:36;0.70;;;0.25;;
34136;SDS011;20414;50.860;4.382;2022-09-09T08:27:02;2.45;;;0.50;;
34136;SDS011;20414;50.860;4.382;2022-09-09T08:29:28;1.20;;;0.60;;
34136;SDS011;20414;50.860;4.382;2022-09-09T08:31:54;1.05;;;0.28;;
34136;SDS011;20414;50.860;4.382;2022-09-09T08:34:22;1.17;;;0.60;;
34136;SDS011;20414;50.860;4.382;2022-09-09T08:36:50;0.80;;;0.40;;
34136;SDS011;20414;50.860;4.382;2022-09-09T08:39:17;0.93;;;0.32;;
34136;SDS011;20414;50.860;4.382;2022-09-09T08:50:01;0.80;;;0.38;;
34136;SDS011;20414;50.860;4.382;2022-09-09T08:52:55;0.80;;;0.40;;
34136;SDS011;20414;50.860;4.382;2022-09-09T08:55:41;1.13;;;0.50;;
34136;SDS011;20414;50.860;4.382;2022-09-09T08:58:17;1.70;;;0.50;;
34136;SDS011;20414;50.860;4.382;2022-09-09T09:11:39;0.85;;;0.50;;
34136;SDS011;20414;50.860;4.382;2022-09-09T09:14:10;1.15;;;0.40;;
34136;SDS011;20414;50.860;4.382;2022-09-09T09:19:27;0.30;;;0.30;;
34136;SDS011;20414;50.860;4.382;2022-09-09T09:29:59;1.20;;;0.50;;
34136;SDS011;20414;50.860;4.382;2022-09-09T09:32:40;1.52;;;0.65;;
34136;SDS011;20414;50.860;4.382;2022-09-09T09:35:19;0.93;;;0.40;;
34136;SDS011;20414;50.860;4.382;2022-09-09T09:37:45;1.02;;;0.50;;
34136;SDS011;20414;50.860;4.382;2022-09-09T09:40:16;1.55;;;0.40;;
34136;SDS011;20414;50.860;4.382;2022-09-09T09:42:54;1.40;;;0.30;;
34136;SDS011;20414;50.860;4.382;2022-09-09T09:45:35;0.82;;;0.32;;
34136;SDS011;20414;50.860;4.382;2022-09-09T09:48:10;1.58;;;0.30;;
34136;SDS011;20414;50.860;4.382;2022-09-09T09:53:26;1.08;;;0.50;;
34136;SDS011;20414;50.860;4.382;2022-09-09T09:55:55;1.95;;;0.63;;
34136;SDS011;20414;50.860;4.382;2022-09-09T09:58:26;1.10;;;0.47;;
34136;SDS011;20414;50.860;4.382;2022-09-09T10:00:56;1.38;;;0.40;;
34136;SDS011;20414;50.860;4.382;2022-09-09T10:05:51;1.45;;;0.40;;
34136;SDS011;20414;50.860;4.382;2022-09-09T10:08:18;0.93;;;0.30;;
34136;SDS011;20414;50.860;4.382;2022-09-09T10:13:53;2.35;;;0.50;;
34136;SDS011;20414;50.860;4.382;2022-09-09T10:16:25;0.55;;;0.30;;
34136;SDS011;20414;50.860;4.382;2022-09-09T10:19:26;0.73;;;0.30;;
34136;SDS011;20414;50.860;4.382;2022-09-09T10:26:58;0.85;;;0.38;;
34136;SDS011;20414;50.860;4.382;2022-09-09T10:29:44;1.52;;;0.50;;
34136;SDS011;20414;50.860;4.382;2022-09-09T10:35:39;1.33;;;0.47;;
34136;SDS011;20414;50.860;4.382;2022-09-09T10:40:34;1.55;;;0.55;;
34136;SDS011;20414;50.860;4.382;2022-09-09T10:43:21;1.90;;;0.35;;
34136;SDS011;20414;50.860;4.382;2022-09-09T10:46:06;2.63;;;0.60;;
34136;SDS011;20414;50.860;4.382;2022-09-09T10:51:31;1.25;;;0.40;;
34136;SDS011;20414;50.860;4.382;2022-09-09T10:55:06;1.38;;;0.50;;
34136;SDS011;20414;50.860;4.382;2022-09-09T11:00:01;1.48;;;0.43;;
34136;SDS011;20414;50.860;4.382;2022-09-09T11:02:39;1.50;;;0.60;;
34136;SDS011;20414;50.860;4.382;2022-09-09T11:10:23;0.60;;;0.40;;
34136;SDS011;20414;50.860;4.382;2022-09-09T11:13:16;0.85;;;0.40;;
34136;SDS011;20414;50.860;4.382;2022-09-09T11:16:02;0.82;;;0.50;;
34136;SDS011;20414;50.860;4.382;2022-09-09T11:18:43;0.80;;;0.45;;
34136;SDS011;20414;50.860;4.382;2022-09-09T11:24:16;1.17;;;0.50;;
34136;SDS011;20414;50.860;4.382;2022-09-09T11:26:54;0.90;;;0.50;;
34136;SDS011;20414;50.860;4.382;2022-09-09T11:29:38;1.30;;;0.40;;
34136;SDS011;20414;50.860;4.382;2022-09-09T11:40:34;1.90;;;0.40;;
34136;SDS011;20414;50.860;4.382;2022-09-09T11:43:20;1.42;;;0.38;;
34136;SDS011;20414;50.860;4.382;2022-09-09T11:46:00;1.75;;;0.47;;
34136;SDS011;20414;50.860;4.382;2022-09-09T11:53:54;0.98;;;0.40;;
34136;SDS011;20414;50.860;4.382;2022-09-09T11:59:19;1.67;;;0.50;;
34136;SDS011;20414;50.860;4.382;2022-09-09T12:02:03;1.27;;;0.40;;
34136;SDS011;20414;50.860;4.382;2022-09-09T12:05:02;0.82;;;0.40;;
34136;SDS011;20414;50.860;4.382;2022-09-09T12:10:23;1.80;;;0.55;;
34136;SDS011;20414;50.860;4.382;2022-09-09T12:12:54;1.38;;;0.55;;
34136;SDS011;20414;50.860;4.382;2022-09-09T12:15:21;1.52;;;0.38;;
34136;SDS011;20414;50.860;4.382;2022-09-09T12:17:51;1.00;;;0.43;;
34136;SDS011;20414;50.860;4.382;2022-09-09T12:20:34;1.25;;;0.50;;
34136;SDS011;20414;50.860;4.382;2022-09-09T12:31:47;1.08;;;0.35;;
34136;SDS011;20414;50.860;4.382;2022-09-09T12:36:53;1.48;;;0.50;;
34136;SDS011;20414;50.860;4.382;2022-09-09T12:39:28;1.20;;;0.40;;
34136;SDS011;20414;50.860;4.382;2022-09-09T12:41:58;0.98;;;0.50;;
34136;SDS011;20414;50.860;4.382;2022-09-09T12:44:24;1.45;;;0.50;;
34136;SDS011;20414;50.860;4.382;2022-09-09T12:46:53;1.00;;;0.47;;
34136;SDS011;20414;50.860;4.382;2022-09-09T12:52:00;2.55;;;0.50;;
34136;SDS011;20414;50.860;4.382;2022-09-09T12:54:30;0.63;;;0.40;;
34136;SDS011;20414;50.860;4.382;2022-09-09T12:56:58;1.70;;;0.65;;
34136;SDS011;20414;50.860;4.382;2022-09-09T12:59:34;1.15;;;0.50;;
34136;SDS011;20414;50.860;4.382;2022-09-09T13:02:02;1.83;;;0.40;;
34136;SDS011;20414;50.860;4.382;2022-09-09T13:04:42;0.88;;;0.47;;
34136;SDS011;20414;50.860;4.382;2022-09-09T13:07:09;0.75;;;0.40;;
34136;SDS011;20414;50.860;4.382;2022-09-09T13:09:42;0.85;;;0.40;;
34136;SDS011;20414;50.860;4.382;2022-09-09T13:12:18;1.17;;;0.70;;
34136;SDS011;20414;50.860;4.382;2022-09-09T13:14:48;2.20;;;0.50;;
34136;SDS011;20414;50.860;4.382;2022-09-09T13:17:24;0.98;;;0.55;;
34136;SDS011;20414;50.860;4.382;2022-09-09T13:19:52;1.17;;;0.40;;
34136;SDS011;20414;50.860;4.382;2022-09-09T13:22:34;0.95;;;0.35;;
34136;SDS011;20414;50.860;4.382;2022-09-09T13:27:38;1.75;;;0.47;;
34136;SDS011;20414;50.860;4.382;2022-09-09T13:30:22;0.60;;;0.32;;
34136;SDS011;20414;50.860;4.382;2022-09-09T13:38:32;1.45;;;0.32;;
34136;SDS011;20414;50.860;4.382;2022-09-09T13:41:19;1.52;;;0.40;;
34136;SDS011;20414;50.860;4.382;2022-09-09T13:43:48;1.80;;;0.47;;
34136;SDS011;20414;50.860;4.382;2022-09-09T13:51:39;1.58;;;0.50;;
34136;SDS011;20414;50.860;4.382;2022-09-09T13:54:10;0.90;;;0.30;;
34136;SDS011;20414;50.860;4.382;2022-09-09T13:56:37;1.20;;;0.43;;
34136;SDS011;20414;50.860;4.382;2022-09-09T13:59:05;0.60;;;0.47;;
34136;SDS011;20414;50.860;4.382;2022-09-09T14:01:34;0.52;;;0.40;;
34136;SDS011;20414;50.860;4.382;2022-09-09T14:04:00;1.90;;;0.40;;
34136;SDS011;20414;50.860;4.382;2022-09-09T14:06:26;1.02;;;0.30;;
34136;SDS011;20414;50.860;4.382;2022-09-09T14:08:52;1.10;;;0.40;;
34136;SDS011;20414;50.860;4.382;2022-09-09T14:11:19;0.85;;;0.40;;
34136;SDS011;20414;50.860;4.382;2022-09-09T14:13:47;1.52;;;0.40;;
34136;SDS011;20414;50.860;4.382;2022-09-09T14:16:14;0.90;;;0.40;;
34136;SDS011;20414;50.860;4.382;2022-09-09T14:18:41;1.10;;;0.40;;
34136;SDS011;20414;50.860;4.382;2022-09-09T14:21:07;0.93;;;0.40;;
34136;SDS011;20414;50.860;4.382;2022-09-09T14:23:33;0.77;;;0.30;;
34136;SDS011;20414;50.860;4.382;2022-09-09T14:25:59;1.27;;;0.50;;
34136;SDS011;20414;50.860;4.382;2022-09-09T14:28:25;1.33;;;0.40;;
34136;SDS011;20414;50.860;4.382;2022-09-09T14:30:50;0.50;;;0.30;;
34136;SDS011;20414;50.860;4.382;2022-09-09T14:33:16;0.68;;;0.30;;
34136;SDS011;20414;50.860;4.382;2022-09-09T14:35:42;0.55;;;0.30;;
34136;SDS011;20414;50.860;4.382;2022-09-09T14:38:09;0.65;;;0.30;;
34136;SDS011;20414;50.860;4.382;2022-09-09T14:40:35;1.23;;;0.50;;
34136;SDS011;20414;50.860;4.382;2022-09-09T14:43:02;1.10;;;0.30;;
34136;SDS011;20414;50.860;4.382;2022-09-09T14:45:28;1.02;;;0.47;;
34136;SDS011;20414;50.860;4.382;2022-09-09T14:47:54;0.93;;;0.40;;
34136;SDS011;20414;50.860;4.382;2022-09-09T14:50:20;0.50;;;0.20;;
34136;SDS011;20414;50.860;4.382;2022-09-09T14:52:47;1.23;;;0.45;;
34136;SDS011;20414;50.860;4.382;2022-09-09T14:55:14;0.82;;;0.40;;
34136;SDS011;20414;50.860;4.382;2022-09-09T14:57:40;0.75;;;0.30;;
34136;SDS011;20414;50.860;4.382;2022-09-09T15:00:07;0.77;;;0.40;;
34136;SDS011;20414;50.860;4.382;2022-09-09T15:02:34;0.88;;;0.40;;
34136;SDS011;20414;50.860;4.382;2022-09-09T15:04:59;1.05;;;0.30;;
34136;SDS011;20414;50.860;4.382;2022-09-09T15:07:25;0.98;;;0.30;;
34136;SDS011;20414;50.860;4.382;2022-09-09T15:09:52;1.83;;;0.40;;
34136;SDS011;20414;50.860;4.382;2022-09-09T15:12:18;1.50;;;0.43;;
34136;SDS011;20414;50.860;4.382;2022-09-09T15:14:44;1.10;;;0.20;;
34136;SDS011;20414;50.860;4.382;2022-09-09T15:17:10;0.93;;;0.43;;
34136;SDS011;20414;50.860;4.382;2022-09-09T15:19:37;0.75;;;0.45;;
34136;SDS011;20414;50.860;4.382;2022-09-09T15:22:03;0.60;;;0.40;;
34136;SDS011;20414;50.860;4.382;2022-09-09T15:24:32;1.20;;;0.43;;
34136;SDS011;20414;50.860;4.382;2022-09-09T15:26:59;0.60;;;0.28;;
34136;SDS011;20414;50.860;4.382;2022-09-09T15:29:25;0.70;;;0.30;;
34136;SDS011;20414;50.860;4.382;2022-09-09T15:31:51;0.70;;;0.30;;
34136;SDS011;20414;50.860;4.382;2022-09-09T15:34:18;0.75;;;0.30;;
34136;SDS011;20414;50.860;4.382;2022-09-09T15:36:45;1.00;;;0.43;;
34136;SDS011;20414;50.860;4.382;2022-09-09T15:39:17;0.77;;;0.38;;
34136;SDS011;20414;50.860;4.382;2022-09-09T15:44:10;1.50;;;0.30;;
34136;SDS011;20414;50.860;4.382;2022-09-09T15:46:45;1.10;;;0.40;;
34136;SDS011;20414;50.860;4.382;2022-09-09T15:49:14;1.02;;;0.30;;
34136;SDS011;20414;50.860;4.382;2022-09-09T15:51:41;0.65;;;0.30;;
34136;SDS011;20414;50.860;4.382;2022-09-09T15:54:09;0.43;;;0.20;;
34136;SDS011;20414;50.860;4.382;2022-09-09T15:56:37;0.52;;;0.22;;
34136;SDS011;20414;50.860;4.382;2022-09-09T15:59:03;1.02;;;0.50;;
34136;SDS011;20414;50.860;4.382;2022-09-09T16:01:29;0.20;;;0.20;;
34136;SDS011;20414;50.860;4.382;2022-09-09T16:03:56;0.30;;;0.30;;
34136;SDS011;20414;50.860;4.382;2022-09-09T16:06:24;0.60;;;0.20;;
34136;SDS011;20414;50.860;4.382;2022-09-09T16:08:51;1.05;;;0.40;;
34136;SDS011;20414;50.860;4.382;2022-09-09T16:13:52;0.77;;;0.40;;
34136;SDS011;20414;50.860;4.382;2022-09-09T16:16:19;0.80;;;0.35;;
34136;SDS011;20414;50.860;4.382;2022-09-09T16:18:47;0.30;;;0.20;;
34136;SDS011;20414;50.860;4.382;2022-09-09T16:23:56;0.98;;;0.20;;
34136;SDS011;20414;50.860;4.382;2022-09-09T16:26:27;1.13;;;0.32;;
34136;SDS011;20414;50.860;4.382;2022-09-09T16:28:55;0.90;;;0.40;;
34136;SDS011;20414;50.860;4.382;2022-09-09T16:31:23;1.08;;;0.40;;
34136;SDS011;20414;50.860;4.382;2022-09-09T16:33:49;0.60;;;0.30;;
34136;SDS011;20414;50.860;4.382;2022-09-09T16:36:19;0.80;;;0.30;;
34136;SDS011;20414;50.860;4.382;2022-09-09T16:38:47;1.27;;;0.30;;
34136;SDS011;20414;50.860;4.382;2022-09-09T16:41:16;0.40;;;0.30;;
34136;SDS011;20414;50.860;4.382;2022-09-09T16:43:42;0.45;;;0.30;;
34136;SDS011;20414;50.860;4.382;2022-09-09T16:46:15;0.30;;;0.20;;
34136;SDS011;20414;50.860;4.382;2022-09-09T16:48:43;0.90;;;0.40;;
34136;SDS011;20414;50.860;4.382;2022-09-09T16:51:14;0.47;;;0.28;;
34136;SDS011;20414;50.860;4.382;2022-09-09T16:53:41;0.60;;;0.30;;
34136;SDS011;20414;50.860;4.382;2022-09-09T16:56:09;0.90;;;0.40;;
34136;SDS011;20414;50.860;4.382;2022-09-09T16:58:39;1.23;;;0.32;;
34136;SDS011;20414;50.860;4.382;2022-09-09T17:01:08;0.52;;;0.30;;
34136;SDS011;20414;50.860;4.382;2022-09-09T17:03:35;1.15;;;0.32;;
34136;SDS011;20414;50.860;4.382;2022-09-09T17:06:02;1.50;;;0.28;;
34136;SDS011;20414;50.860;4.382;2022-09-09T17:08:31;0.98;;;0.30;;
34136;SDS011;20414;50.860;4.382;2022-09-09T17:10:58;0.95;;;0.20;;
34136;SDS011;20414;50.860;4.382;2022-09-09T17:13:24;0.40;;;0.20;;
34136;SDS011;20414;50.860;4.382;2022-09-09T17:15:50;0.57;;;0.38;;
34136;SDS011;20414;50.860;4.382;2022-09-09T17:18:16;0.57;;;0.20;;
34136;SDS011;20414;50.860;4.382;2022-09-09T17:20:42;0.85;;;0.20;;
34136;SDS011;20414;50.860;4.382;2022-09-09T17:23:09;0.95;;;0.40;;
34136;SDS011;20414;50.860;4.382;2022-09-09T17:25:35;0.50;;;0.20;;
34136;SDS011;20414;50.860;4.382;2022-09-09T17:28:01;0.47;;;0.30;;
34136;SDS011;20414;50.860;4.382;2022-09-09T17:30:29;0.98;;;0.40;;
34136;SDS011;20414;50.860;4.382;2022-09-09T17:32:59;0.80;;;0.30;;
34136;SDS011;20414;50.860;4.382;2022-09-09T17:35:25;0.98;;;0.30;;
34136;SDS011;20414;50.860;4.382;2022-09-09T17:37:52;0.98;;;0.40;;
34136;SDS011;20414;50.860;4.382;2022-09-09T17:40:22;0.50;;;0.20;;
34136;SDS011;20414;50.860;4.382;2022-09-09T17:42:48;0.82;;;0.38;;